sensor_id;sensor_type;location;lat;lon;timestamp;temperature;humidity
21565;DHT22;10943;48.738;9.320;2022-07-05T00:00:40;21.70;99.90
21565;DHT22;10943;48.738;9.320;2022-07-05T00:03:12;21.40;99.90
21565;DHT22;10943;48.738;9.320;2022-07-05T00:05:40;21.40;99.90
21565;DHT22;10943;48.738;9.320;2022-07-05T00:08:08;21.40;99.90
21565;DHT22;10943;48.738;9.320;2022-07-05T00:10:37;21.50;99.90
21565;DHT22;10943;48.738;9.320;2022-07-05T00:13:08;21.40;99.90
21565;DHT22;10943;48.738;9.320;2022-07-05T00:15:36;21.40;99.90
21565;DHT22;10943;48.738;9.320;2022-07-05T00:18:03;21.30;99.90
21565;DHT22;10943;48.738;9.320;2022-07-05T00:20:31;21.30;99.90
21565;DHT22;10943;48.738;9.320;2022-07-05T00:23:00;21.10;99.90
21565;DHT22;10943;48.738;9.320;2022-07-05T00:25:53;21.10;99.90
21565;DHT22;10943;48.738;9.320;2022-07-05T00:28:20;20.90;99.90
21565;DHT22;10943;48.738;9.320;2022-07-05T00:30:47;20.80;99.90
21565;DHT22;10943;48.738;9.320;2022-07-05T00:33:15;20.90;99.90
21565;DHT22;10943;48.738;9.320;2022-07-05T00:35:42;21.00;99.90
21565;DHT22;10943;48.738;9.320;2022-07-05T00:38:09;21.20;99.90
21565;DHT22;10943;48.738;9.320;2022-07-05T00:40:37;20.90;99.90
21565;DHT22;10943;48.738;9.320;2022-07-05T00:43:04;20.90;99.90
21565;DHT22;10943;48.738;9.320;2022-07-05T00:45:32;20.80;99.90
21565;DHT22;10943;48.738;9.320;2022-07-05T00:47:59;21.00;99.90
21565;DHT22;10943;48.738;9.320;2022-07-05T00:50:27;20.90;99.90
21565;DHT22;10943;48.738;9.320;2022-07-05T00:52:55;20.90;99.90
21565;DHT22;10943;48.738;9.320;2022-07-05T00:55:24;20.90;99.90
21565;DHT22;10943;48.738;9.320;2022-07-05T00:57:54;20.80;99.90
21565;DHT22;10943;48.738;9.320;2022-07-05T01:00:21;20.90;99.90
21565;DHT22;10943;48.738;9.320;2022-07-05T01:02:50;20.70;99.90
21565;DHT22;10943;48.738;9.320;2022-07-05T01:05:19;20.40;99.90
21565;DHT22;10943;48.738;9.320;2022-07-05T01:07:47;20.30;99.90
21565;DHT22;10943;48.738;9.320;2022-07-05T01:10:16;20.40;99.90
21565;DHT22;10943;48.738;9.320;2022-07-05T01:12:46;20.20;99.90
21565;DHT22;10943;48.738;9.320;2022-07-05T01:15:16;20.20;99.90
21565;DHT22;10943;48.738;9.320;2022-07-05T01:17:48;20.30;99.90
21565;DHT22;10943;48.738;9.320;2022-07-05T01:20:16;20.20;99.90
21565;DHT22;10943;48.738;9.320;2022-07-05T01:22:54;20.00;99.90
21565;DHT22;10943;48.738;9.320;2022-07-05T01:25:25;20.10;99.90
21565;DHT22;10943;48.738;9.320;2022-07-05T01:27:56;20.00;99.90
21565;DHT22;10943;48.738;9.320;2022-07-05T01:30:26;20.00;99.90
21565;DHT22;10943;48.738;9.320;2022-07-05T01:32:54;19.90;99.90
21565;DHT22;10943;48.738;9.320;2022-07-05T01:35:22;19.80;99.90
21565;DHT22;10943;48.738;9.320;2022-07-05T01:37:51;19.90;99.90
21565;DHT22;10943;48.738;9.320;2022-07-05T01:40:20;19.90;99.90
21565;DHT22;10943;48.738;9.320;2022-07-05T01:42:49;20.00;99.90
21565;DHT22;10943;48.738;9.320;2022-07-05T01:45:17;19.90;99.90
21565;DHT22;10943;48.738;9.320;2022-07-05T01:48:21;19.90;99.90
21565;DHT22;10943;48.738;9.320;2022-07-05T01:50:52;19.90;99.90
21565;DHT22;10943;48.738;9.320;2022-07-05T01:53:26;19.90;99.90
21565;DHT22;10943;48.738;9.320;2022-07-05T01:55:57;19.60;99.90
21565;DHT22;10943;48.738;9.320;2022-07-05T01:58:32;19.60;99.90
21565;DHT22;10943;48.738;9.320;2022-07-05T02:00:59;19.60;99.90
21565;DHT22;10943;48.738;9.320;2022-07-05T02:03:29;19.70;99.90
21565;DHT22;10943;48.738;9.320;2022-07-05T02:06:18;19.90;99.90
21565;DHT22;10943;48.738;9.320;2022-07-05T02:08:50;20.20;99.90
21565;DHT22;10943;48.738;9.320;2022-07-05T02:11:18;20.00;99.90
21565;DHT22;10943;48.738;9.320;2022-07-05T02:13:46;19.60;99.90
21565;DHT22;10943;48.738;9.320;2022-07-05T02:16:14;19.50;99.90
21565;DHT22;10943;48.738;9.320;2022-07-05T02:18:42;19.60;99.90
21565;DHT22;10943;48.738;9.320;2022-07-05T02:21:11;19.80;99.90
21565;DHT22;10943;48.738;9.320;2022-07-05T02:23:41;19.90;99.90
21565;DHT22;10943;48.738;9.320;2022-07-05T02:26:10;19.60;99.90
21565;DHT22;10943;48.738;9.320;2022-07-05T02:28:40;19.50;99.90
21565;DHT22;10943;48.738;9.320;2022-07-05T02:31:11;19.60;99.90
21565;DHT22;10943;48.738;9.320;2022-07-05T02:33:41;19.60;99.90
21565;DHT22;10943;48.738;9.320;2022-07-05T02:36:12;19.90;99.90
21565;DHT22;10943;48.738;9.320;2022-07-05T02:38:40;19.70;99.90
21565;DHT22;10943;48.738;9.320;2022-07-05T02:41:10;19.50;99.90
21565;DHT22;10943;48.738;9.320;2022-07-05T02:43:44;19.30;99.90
21565;DHT22;10943;48.738;9.320;2022-07-05T02:46:14;19.50;99.90
21565;DHT22;10943;48.738;9.320;2022-07-05T02:48:44;19.40;99.90
21565;DHT22;10943;48.738;9.320;2022-07-05T02:51:14;19.40;99.90
21565;DHT22;10943;48.738;9.320;2022-07-05T02:53:47;19.30;99.90
21565;DHT22;10943;48.738;9.320;2022-07-05T02:56:16;19.10;99.90
21565;DHT22;10943;48.738;9.320;2022-07-05T02:58:47;18.90;99.90
21565;DHT22;10943;48.738;9.320;2022-07-05T03:01:15;19.10;99.90
21565;DHT22;10943;48.738;9.320;2022-07-05T03:03:44;19.10;99.90
21565;DHT22;10943;48.738;9.320;2022-07-05T03:06:12;19.20;99.90
21565;DHT22;10943;48.738;9.320;2022-07-05T03:08:42;19.40;99.90
21565;DHT22;10943;48.738;9.320;2022-07-05T03:11:36;19.20;99.90
21565;DHT22;10943;48.738;9.320;2022-07-05T03:14:06;19.10;99.90
21565;DHT22;10943;48.738;9.320;2022-07-05T03:16:34;19.20;99.90
21565;DHT22;10943;48.738;9.320;2022-07-05T03:19:01;18.80;99.90
21565;DHT22;10943;48.738;9.320;2022-07-05T03:21:29;18.80;99.90
21565;DHT22;10943;48.738;9.320;2022-07-05T03:23:59;18.80;99.90
21565;DHT22;10943;48.738;9.320;2022-07-05T03:26:27;18.50;99.90
21565;DHT22;10943;48.738;9.320;2022-07-05T03:28:55;18.50;99.90
21565;DHT22;10943;48.738;9.320;2022-07-05T03:31:25;18.50;99.90
21565;DHT22;10943;48.738;9.320;2022-07-05T03:33:55;18.60;99.90
21565;DHT22;10943;48.738;9.320;2022-07-05T03:36:23;18.90;99.90
21565;DHT22;10943;48.738;9.320;2022-07-05T03:38:51;18.90;99.90
21565;DHT22;10943;48.738;9.320;2022-07-05T03:41:20;18.70;99.90
21565;DHT22;10943;48.738;9.320;2022-07-05T03:43:49;18.70;99.90
21565;DHT22;10943;48.738;9.320;2022-07-05T03:46:17;18.60;99.90
21565;DHT22;10943;48.738;9.320;2022-07-05T03:48:45;18.70;99.90
21565;DHT22;10943;48.738;9.320;2022-07-05T03:51:16;19.00;99.90
21565;DHT22;10943;48.738;9.320;2022-07-05T03:53:45;19.00;99.90
21565;DHT22;10943;48.738;9.320;2022-07-05T03:56:12;19.10;99.90
21565;DHT22;10943;48.738;9.320;2022-07-05T03:58:39;19.20;99.90
21565;DHT22;10943;48.738;9.320;2022-07-05T04:01:07;19.20;99.90
21565;DHT22;10943;48.738;9.320;2022-07-05T04:03:34;19.10;99.90
21565;DHT22;10943;48.738;9.320;2022-07-05T04:06:12;19.10;99.90
21565;DHT22;10943;48.738;9.320;2022-07-05T04:08:41;18.90;99.90
21565;DHT22;10943;48.738;9.320;2022-07-05T04:11:36;18.90;99.90
21565;DHT22;10943;48.738;9.320;2022-07-05T04:14:05;19.10;99.90
21565;DHT22;10943;48.738;9.320;2022-07-05T04:16:32;19.20;99.90
21565;DHT22;10943;48.738;9.320;2022-07-05T04:19:01;19.30;99.90
21565;DHT22;10943;48.738;9.320;2022-07-05T04:21:31;19.20;99.90
21565;DHT22;10943;48.738;9.320;2022-07-05T04:23:59;19.30;99.90
21565;DHT22;10943;48.738;9.320;2022-07-05T04:26:27;19.30;99.90
21565;DHT22;10943;48.738;9.320;2022-07-05T04:28:55;19.30;99.90
21565;DHT22;10943;48.738;9.320;2022-07-05T04:31:30;19.20;99.90
21565;DHT22;10943;48.738;9.320;2022-07-05T04:33:58;19.30;99.90
21565;DHT22;10943;48.738;9.320;2022-07-05T04:36:29;19.40;99.90
21565;DHT22;10943;48.738;9.320;2022-07-05T04:38:58;19.60;99.90
21565;DHT22;10943;48.738;9.320;2022-07-05T04:41:26;20.30;99.90
21565;DHT22;10943;48.738;9.320;2022-07-05T04:43:54;21.50;99.90
21565;DHT22;10943;48.738;9.320;2022-07-05T04:46:22;23.10;99.90
21565;DHT22;10943;48.738;9.320;2022-07-05T04:48:51;24.60;99.90
21565;DHT22;10943;48.738;9.320;2022-07-05T04:51:18;25.90;99.90
21565;DHT22;10943;48.738;9.320;2022-07-05T04:53:46;27.00;99.90
21565;DHT22;10943;48.738;9.320;2022-07-05T04:56:14;27.90;99.90
21565;DHT22;10943;48.738;9.320;2022-07-05T04:58:42;29.00;99.90
21565;DHT22;10943;48.738;9.320;2022-07-05T05:01:12;29.60;99.90
21565;DHT22;10943;48.738;9.320;2022-07-05T05:03:40;29.50;99.90
21565;DHT22;10943;48.738;9.320;2022-07-05T05:06:09;29.80;99.90
21565;DHT22;10943;48.738;9.320;2022-07-05T05:08:37;30.20;99.90
21565;DHT22;10943;48.738;9.320;2022-07-05T05:11:04;30.70;99.90
21565;DHT22;10943;48.738;9.320;2022-07-05T05:13:59;31.10;99.90
21565;DHT22;10943;48.738;9.320;2022-07-05T05:16:27;31.50;99.90
21565;DHT22;10943;48.738;9.320;2022-07-05T05:18:54;32.00;99.90
21565;DHT22;10943;48.738;9.320;2022-07-05T05:21:22;31.80;99.90
21565;DHT22;10943;48.738;9.320;2022-07-05T05:23:54;32.50;99.30
21565;DHT22;10943;48.738;9.320;2022-07-05T05:26:22;33.30;97.30
21565;DHT22;10943;48.738;9.320;2022-07-05T05:28:50;33.80;95.50
21565;DHT22;10943;48.738;9.320;2022-07-05T05:31:18;33.50;95.10
21565;DHT22;10943;48.738;9.320;2022-07-05T05:33:47;33.90;95.00
21565;DHT22;10943;48.738;9.320;2022-07-05T05:36:15;34.60;93.50
21565;DHT22;10943;48.738;9.320;2022-07-05T05:38:42;35.10;92.20
21565;DHT22;10943;48.738;9.320;2022-07-05T05:41:16;35.80;90.80
21565;DHT22;10943;48.738;9.320;2022-07-05T05:43:44;36.40;89.70
21565;DHT22;10943;48.738;9.320;2022-07-05T05:46:13;37.00;87.20
21565;DHT22;10943;48.738;9.320;2022-07-05T05:48:40;37.30;85.50
21565;DHT22;10943;48.738;9.320;2022-07-05T05:51:08;37.90;82.20
21565;DHT22;10943;48.738;9.320;2022-07-05T05:53:37;38.40;80.20
21565;DHT22;10943;48.738;9.320;2022-07-05T05:56:09;37.80;79.20
21565;DHT22;10943;48.738;9.320;2022-07-05T05:58:36;38.30;78.20
21565;DHT22;10943;48.738;9.320;2022-07-05T06:01:14;38.20;77.70
21565;DHT22;10943;48.738;9.320;2022-07-05T06:03:43;38.50;76.50
21565;DHT22;10943;48.738;9.320;2022-07-05T06:06:12;39.40;75.30
21565;DHT22;10943;48.738;9.320;2022-07-05T06:08:39;39.20;72.50
21565;DHT22;10943;48.738;9.320;2022-07-05T06:11:33;39.50;71.90
21565;DHT22;10943;48.738;9.320;2022-07-05T06:14:01;39.90;70.20
21565;DHT22;10943;48.738;9.320;2022-07-05T06:16:29;40.00;70.10
21565;DHT22;10943;48.738;9.320;2022-07-05T06:18:57;40.20;68.00
21565;DHT22;10943;48.738;9.320;2022-07-05T06:21:25;40.10;67.60
21565;DHT22;10943;48.738;9.320;2022-07-05T06:23:54;40.00;67.70
21565;DHT22;10943;48.738;9.320;2022-07-05T06:26:21;40.30;67.40
21565;DHT22;10943;48.738;9.320;2022-07-05T06:28:49;40.50;65.30
21565;DHT22;10943;48.738;9.320;2022-07-05T06:31:16;41.20;65.20
21565;DHT22;10943;48.738;9.320;2022-07-05T06:33:43;42.60;62.50
21565;DHT22;10943;48.738;9.320;2022-07-05T06:36:11;42.90;61.20
21565;DHT22;10943;48.738;9.320;2022-07-05T06:39:04;43.00;60.50
21565;DHT22;10943;48.738;9.320;2022-07-05T06:41:33;43.60;60.00
21565;DHT22;10943;48.738;9.320;2022-07-05T06:44:01;44.20;57.90
21565;DHT22;10943;48.738;9.320;2022-07-05T06:46:48;44.20;57.00
21565;DHT22;10943;48.738;9.320;2022-07-05T06:49:15;44.20;56.40
21565;DHT22;10943;48.738;9.320;2022-07-05T06:51:43;43.80;56.70
21565;DHT22;10943;48.738;9.320;2022-07-05T06:54:10;44.50;56.30
21565;DHT22;10943;48.738;9.320;2022-07-05T06:56:59;44.20;56.20
21565;DHT22;10943;48.738;9.320;2022-07-05T06:59:47;44.60;55.30
21565;DHT22;10943;48.738;9.320;2022-07-05T07:02:24;44.60;55.10
21565;DHT22;10943;48.738;9.320;2022-07-05T07:04:52;43.50;55.40
21565;DHT22;10943;48.738;9.320;2022-07-05T07:07:38;44.40;54.90
21565;DHT22;10943;48.738;9.320;2022-07-05T07:10:24;45.80;53.80
21565;DHT22;10943;48.738;9.320;2022-07-05T07:12:56;46.90;52.80
21565;DHT22;10943;48.738;9.320;2022-07-05T07:15:25;47.70;51.50
21565;DHT22;10943;48.738;9.320;2022-07-05T07:18:11;47.70;51.30
21565;DHT22;10943;48.738;9.320;2022-07-05T07:20:39;48.30;50.80
21565;DHT22;10943;48.738;9.320;2022-07-05T07:23:07;49.00;50.10
21565;DHT22;10943;48.738;9.320;2022-07-05T07:25:35;49.30;48.80
21565;DHT22;10943;48.738;9.320;2022-07-05T07:28:03;49.50;48.60
21565;DHT22;10943;48.738;9.320;2022-07-05T07:30:32;49.90;47.90
21565;DHT22;10943;48.738;9.320;2022-07-05T07:32:59;50.30;47.20
21565;DHT22;10943;48.738;9.320;2022-07-05T07:35:26;50.70;46.60
21565;DHT22;10943;48.738;9.320;2022-07-05T07:37:54;50.60;45.90
21565;DHT22;10943;48.738;9.320;2022-07-05T07:40:21;49.50;45.50
21565;DHT22;10943;48.738;9.320;2022-07-05T07:42:49;48.50;45.90
21565;DHT22;10943;48.738;9.320;2022-07-05T07:45:17;48.00;46.70
21565;DHT22;10943;48.738;9.320;2022-07-05T07:47:44;48.80;46.40
21565;DHT22;10943;48.738;9.320;2022-07-05T07:50:12;49.60;45.80
21565;DHT22;10943;48.738;9.320;2022-07-05T07:52:40;50.00;44.50
21565;DHT22;10943;48.738;9.320;2022-07-05T07:55:08;49.00;44.80
21565;DHT22;10943;48.738;9.320;2022-07-05T07:57:35;49.50;45.20
21565;DHT22;10943;48.738;9.320;2022-07-05T08:00:04;49.10;44.30
21565;DHT22;10943;48.738;9.320;2022-07-05T08:02:37;47.60;45.60
21565;DHT22;10943;48.738;9.320;2022-07-05T08:05:07;46.90;45.50
21565;DHT22;10943;48.738;9.320;2022-07-05T08:07:36;46.60;46.60
21565;DHT22;10943;48.738;9.320;2022-07-05T08:10:05;47.30;46.30
21565;DHT22;10943;48.738;9.320;2022-07-05T08:12:34;48.30;45.80
21565;DHT22;10943;48.738;9.320;2022-07-05T08:15:01;48.20;45.40
21565;DHT22;10943;48.738;9.320;2022-07-05T08:17:29;47.90;45.30
21565;DHT22;10943;48.738;9.320;2022-07-05T08:19:57;48.60;45.20
21565;DHT22;10943;48.738;9.320;2022-07-05T08:22:43;49.40;43.70
21565;DHT22;10943;48.738;9.320;2022-07-05T08:25:10;50.00;43.30
21565;DHT22;10943;48.738;9.320;2022-07-05T08:27:41;50.00;43.10
21565;DHT22;10943;48.738;9.320;2022-07-05T08:30:09;50.10;43.30
21565;DHT22;10943;48.738;9.320;2022-07-05T08:32:37;50.50;43.10
21565;DHT22;10943;48.738;9.320;2022-07-05T08:35:05;51.10;42.80
21565;DHT22;10943;48.738;9.320;2022-07-05T08:37:34;51.40;42.00
21565;DHT22;10943;48.738;9.320;2022-07-05T08:40:06;51.10;42.40
21565;DHT22;10943;48.738;9.320;2022-07-05T08:42:34;51.20;42.20
21565;DHT22;10943;48.738;9.320;2022-07-05T08:45:13;52.10;41.50
21565;DHT22;10943;48.738;9.320;2022-07-05T08:47:43;52.50;41.30
21565;DHT22;10943;48.738;9.320;2022-07-05T08:50:14;53.00;40.80
21565;DHT22;10943;48.738;9.320;2022-07-05T08:52:43;53.30;40.60
21565;DHT22;10943;48.738;9.320;2022-07-05T08:55:15;53.10;40.20
21565;DHT22;10943;48.738;9.320;2022-07-05T08:57:43;52.10;40.90
21565;DHT22;10943;48.738;9.320;2022-07-05T09:00:12;51.60;41.00
21565;DHT22;10943;48.738;9.320;2022-07-05T09:02:41;51.00;41.00
21565;DHT22;10943;48.738;9.320;2022-07-05T09:05:12;51.30;40.70
21565;DHT22;10943;48.738;9.320;2022-07-05T09:07:48;51.00;41.00
21565;DHT22;10943;48.738;9.320;2022-07-05T09:10:25;51.00;41.30
21565;DHT22;10943;48.738;9.320;2022-07-05T09:12:59;50.90;41.30
21565;DHT22;10943;48.738;9.320;2022-07-05T09:15:28;51.20;41.20
21565;DHT22;10943;48.738;9.320;2022-07-05T09:17:57;51.60;40.70
21565;DHT22;10943;48.738;9.320;2022-07-05T09:20:26;52.30;40.50
21565;DHT22;10943;48.738;9.320;2022-07-05T09:22:55;51.90;40.30
21565;DHT22;10943;48.738;9.320;2022-07-05T09:25:28;51.90;40.50
21565;DHT22;10943;48.738;9.320;2022-07-05T09:27:58;52.40;40.10
21565;DHT22;10943;48.738;9.320;2022-07-05T09:30:41;51.00;40.20
21565;DHT22;10943;48.738;9.320;2022-07-05T09:35:52;51.40;40.30
21565;DHT22;10943;48.738;9.320;2022-07-05T09:38:28;51.80;40.00
21565;DHT22;10943;48.738;9.320;2022-07-05T09:40:57;51.10;38.80
21565;DHT22;10943;48.738;9.320;2022-07-05T09:43:28;50.70;40.20
21565;DHT22;10943;48.738;9.320;2022-07-05T09:46:02;49.90;40.30
21565;DHT22;10943;48.738;9.320;2022-07-05T09:48:32;48.80;40.80
21565;DHT22;10943;48.738;9.320;2022-07-05T09:51:13;47.60;42.00
21565;DHT22;10943;48.738;9.320;2022-07-05T09:54:02;47.10;43.00
21565;DHT22;10943;48.738;9.320;2022-07-05T09:56:47;46.90;42.40
21565;DHT22;10943;48.738;9.320;2022-07-05T09:59:18;46.70;42.40
21565;DHT22;10943;48.738;9.320;2022-07-05T10:01:49;45.90;43.30
21565;DHT22;10943;48.738;9.320;2022-07-05T10:04:18;46.90;43.10
21565;DHT22;10943;48.738;9.320;2022-07-05T10:06:49;47.20;42.30
21565;DHT22;10943;48.738;9.320;2022-07-05T10:09:17;47.70;41.90
21565;DHT22;10943;48.738;9.320;2022-07-05T10:11:46;47.40;42.20
21565;DHT22;10943;48.738;9.320;2022-07-05T10:14:20;47.30;41.70
21565;DHT22;10943;48.738;9.320;2022-07-05T10:17:09;48.20;42.00
21565;DHT22;10943;48.738;9.320;2022-07-05T10:19:41;49.10;40.90
21565;DHT22;10943;48.738;9.320;2022-07-05T10:22:14;48.60;40.60
21565;DHT22;10943;48.738;9.320;2022-07-05T10:24:45;47.40;41.60
21565;DHT22;10943;48.738;9.320;2022-07-05T10:27:18;47.60;41.50
21565;DHT22;10943;48.738;9.320;2022-07-05T10:29:48;48.20;40.60
21565;DHT22;10943;48.738;9.320;2022-07-05T10:32:18;48.20;40.70
21565;DHT22;10943;48.738;9.320;2022-07-05T10:34:47;48.90;40.30
21565;DHT22;10943;48.738;9.320;2022-07-05T10:37:32;49.30;40.10
21565;DHT22;10943;48.738;9.320;2022-07-05T10:40:05;49.90;39.60
21565;DHT22;10943;48.738;9.320;2022-07-05T10:42:43;50.70;39.60
21565;DHT22;10943;48.738;9.320;2022-07-05T10:45:32;51.00;38.60
21565;DHT22;10943;48.738;9.320;2022-07-05T10:48:28;50.80;38.40
21565;DHT22;10943;48.738;9.320;2022-07-05T10:50:58;50.20;40.00
21565;DHT22;10943;48.738;9.320;2022-07-05T11:06:27;47.90;41.00
21565;DHT22;10943;48.738;9.320;2022-07-05T11:11:39;48.00;40.20
21565;DHT22;10943;48.738;9.320;2022-07-05T11:14:48;48.40;39.70
21565;DHT22;10943;48.738;9.320;2022-07-05T11:17:19;48.90;39.50
21565;DHT22;10943;48.738;9.320;2022-07-05T11:20:17;49.50;38.60
21565;DHT22;10943;48.738;9.320;2022-07-05T11:23:07;50.00;39.20
21565;DHT22;10943;48.738;9.320;2022-07-05T11:25:41;50.60;37.90
21565;DHT22;10943;48.738;9.320;2022-07-05T11:28:19;50.40;38.60
21565;DHT22;10943;48.738;9.320;2022-07-05T11:30:59;50.30;38.40
21565;DHT22;10943;48.738;9.320;2022-07-05T11:33:40;49.90;38.60
21565;DHT22;10943;48.738;9.320;2022-07-05T11:41:47;48.40;39.70
21565;DHT22;10943;48.738;9.320;2022-07-05T11:44:16;48.10;39.30
21565;DHT22;10943;48.738;9.320;2022-07-05T11:46:44;48.20;39.50
21565;DHT22;10943;48.738;9.320;2022-07-05T11:49:20;47.50;39.40
21565;DHT22;10943;48.738;9.320;2022-07-05T11:52:00;46.20;40.20
21565;DHT22;10943;48.738;9.320;2022-07-05T11:54:31;44.60;40.80
21565;DHT22;10943;48.738;9.320;2022-07-05T11:57:02;42.90;42.90
21565;DHT22;10943;48.738;9.320;2022-07-05T11:59:40;43.20;42.80
21565;DHT22;10943;48.738;9.320;2022-07-05T12:02:09;43.80;42.70
21565;DHT22;10943;48.738;9.320;2022-07-05T12:04:36;44.20;42.20
21565;DHT22;10943;48.738;9.320;2022-07-05T12:07:04;44.90;41.30
21565;DHT22;10943;48.738;9.320;2022-07-05T12:09:33;44.80;40.90
21565;DHT22;10943;48.738;9.320;2022-07-05T12:12:23;44.70;41.40
21565;DHT22;10943;48.738;9.320;2022-07-05T12:15:17;44.40;41.40
21565;DHT22;10943;48.738;9.320;2022-07-05T12:17:49;45.10;40.30
21565;DHT22;10943;48.738;9.320;2022-07-05T12:20:23;44.30;40.80
21565;DHT22;10943;48.738;9.320;2022-07-05T12:22:53;44.20;41.70
21565;DHT22;10943;48.738;9.320;2022-07-05T12:25:22;44.00;41.90
21565;DHT22;10943;48.738;9.320;2022-07-05T12:27:52;44.40;42.80
21565;DHT22;10943;48.738;9.320;2022-07-05T12:30:22;44.70;41.60
21565;DHT22;10943;48.738;9.320;2022-07-05T12:32:58;43.90;41.70
21565;DHT22;10943;48.738;9.320;2022-07-05T12:35:41;44.50;41.50
21565;DHT22;10943;48.738;9.320;2022-07-05T12:38:15;45.10;41.40
21565;DHT22;10943;48.738;9.320;2022-07-05T12:40:58;45.00;41.50
21565;DHT22;10943;48.738;9.320;2022-07-05T12:43:26;45.30;41.70
21565;DHT22;10943;48.738;9.320;2022-07-05T12:48:38;45.00;41.60
21565;DHT22;10943;48.738;9.320;2022-07-05T12:51:09;44.30;42.00
21565;DHT22;10943;48.738;9.320;2022-07-05T12:53:48;43.20;42.70
21565;DHT22;10943;48.738;9.320;2022-07-05T12:56:39;41.50;45.00
21565;DHT22;10943;48.738;9.320;2022-07-05T13:00:09;40.40;45.90
21565;DHT22;10943;48.738;9.320;2022-07-05T13:02:48;40.20;46.30
21565;DHT22;10943;48.738;9.320;2022-07-05T13:10:30;39.70;46.80
21565;DHT22;10943;48.738;9.320;2022-07-05T13:15:02;37.70;49.60
21565;DHT22;10943;48.738;9.320;2022-07-05T13:19:30;36.50;50.30
21565;DHT22;10943;48.738;9.320;2022-07-05T13:22:01;37.00;49.90
21565;DHT22;10943;48.738;9.320;2022-07-05T13:24:29;36.00;51.00
21565;DHT22;10943;48.738;9.320;2022-07-05T13:26:56;35.70;52.90
21565;DHT22;10943;48.738;9.320;2022-07-05T13:29:24;35.00;52.00
21565;DHT22;10943;48.738;9.320;2022-07-05T13:31:51;34.20;53.90
21565;DHT22;10943;48.738;9.320;2022-07-05T13:34:18;34.20;54.50
21565;DHT22;10943;48.738;9.320;2022-07-05T13:36:45;34.50;54.30
21565;DHT22;10943;48.738;9.320;2022-07-05T13:39:13;34.50;54.30
21565;DHT22;10943;48.738;9.320;2022-07-05T13:41:41;34.50;55.00
21565;DHT22;10943;48.738;9.320;2022-07-05T13:44:07;34.20;54.40
21565;DHT22;10943;48.738;9.320;2022-07-05T13:46:38;34.60;54.40
21565;DHT22;10943;48.738;9.320;2022-07-05T13:49:05;34.70;54.30
21565;DHT22;10943;48.738;9.320;2022-07-05T13:51:32;35.20;54.30
21565;DHT22;10943;48.738;9.320;2022-07-05T13:53:59;34.90;52.80
21565;DHT22;10943;48.738;9.320;2022-07-05T13:56:28;34.70;53.80
21565;DHT22;10943;48.738;9.320;2022-07-05T13:58:59;34.70;53.60
21565;DHT22;10943;48.738;9.320;2022-07-05T14:01:27;35.00;54.50
21565;DHT22;10943;48.738;9.320;2022-07-05T14:03:57;35.20;54.00
21565;DHT22;10943;48.738;9.320;2022-07-05T14:06:28;35.30;53.60
21565;DHT22;10943;48.738;9.320;2022-07-05T14:08:58;35.50;53.90
21565;DHT22;10943;48.738;9.320;2022-07-05T14:11:27;35.50;53.60
21565;DHT22;10943;48.738;9.320;2022-07-05T14:13:58;35.20;53.00
21565;DHT22;10943;48.738;9.320;2022-07-05T14:16:25;35.40;54.00
21565;DHT22;10943;48.738;9.320;2022-07-05T14:18:53;35.30;53.70
21565;DHT22;10943;48.738;9.320;2022-07-05T14:21:22;35.30;53.60
21565;DHT22;10943;48.738;9.320;2022-07-05T14:24:04;35.40;53.60
21565;DHT22;10943;48.738;9.320;2022-07-05T14:26:33;35.00;54.20
21565;DHT22;10943;48.738;9.320;2022-07-05T14:29:06;34.70;54.60
21565;DHT22;10943;48.738;9.320;2022-07-05T14:31:34;34.00;55.60
21565;DHT22;10943;48.738;9.320;2022-07-05T14:34:01;33.20;55.10
21565;DHT22;10943;48.738;9.320;2022-07-05T14:36:29;33.20;56.10
21565;DHT22;10943;48.738;9.320;2022-07-05T14:39:01;33.70;55.90
21565;DHT22;10943;48.738;9.320;2022-07-05T14:41:30;33.90;54.80
21565;DHT22;10943;48.738;9.320;2022-07-05T14:43:57;33.60;56.30
21565;DHT22;10943;48.738;9.320;2022-07-05T14:46:24;33.00;56.60
21565;DHT22;10943;48.738;9.320;2022-07-05T14:48:52;33.40;56.90
21565;DHT22;10943;48.738;9.320;2022-07-05T14:51:19;34.00;54.80
21565;DHT22;10943;48.738;9.320;2022-07-05T14:53:47;34.30;56.40
21565;DHT22;10943;48.738;9.320;2022-07-05T14:56:40;34.50;55.60
21565;DHT22;10943;48.738;9.320;2022-07-05T14:59:09;34.70;55.90
21565;DHT22;10943;48.738;9.320;2022-07-05T15:01:38;34.30;55.60
21565;DHT22;10943;48.738;9.320;2022-07-05T15:04:05;34.20;55.80
21565;DHT22;10943;48.738;9.320;2022-07-05T15:06:33;33.90;55.60
21565;DHT22;10943;48.738;9.320;2022-07-05T15:09:00;33.60;56.70
21565;DHT22;10943;48.738;9.320;2022-07-05T15:11:29;33.30;56.90
21565;DHT22;10943;48.738;9.320;2022-07-05T15:13:57;33.10;57.40
21565;DHT22;10943;48.738;9.320;2022-07-05T15:16:27;33.10;56.40
21565;DHT22;10943;48.738;9.320;2022-07-05T15:18:55;33.00;57.50
21565;DHT22;10943;48.738;9.320;2022-07-05T15:21:24;32.90;57.40
21565;DHT22;10943;48.738;9.320;2022-07-05T15:23:52;32.70;57.30
21565;DHT22;10943;48.738;9.320;2022-07-05T15:26:46;33.00;57.10
21565;DHT22;10943;48.738;9.320;2022-07-05T15:29:15;33.10;56.90
21565;DHT22;10943;48.738;9.320;2022-07-05T15:31:42;33.10;56.90
21565;DHT22;10943;48.738;9.320;2022-07-05T15:34:13;33.40;56.40
21565;DHT22;10943;48.738;9.320;2022-07-05T15:36:46;33.50;56.50
21565;DHT22;10943;48.738;9.320;2022-07-05T15:39:14;33.70;56.60
21565;DHT22;10943;48.738;9.320;2022-07-05T15:41:42;33.80;55.10
21565;DHT22;10943;48.738;9.320;2022-07-05T15:44:09;33.80;56.00
21565;DHT22;10943;48.738;9.320;2022-07-05T15:46:37;33.70;56.60
21565;DHT22;10943;48.738;9.320;2022-07-05T15:49:23;33.50;55.90
21565;DHT22;10943;48.738;9.320;2022-07-05T15:51:51;33.50;55.30
21565;DHT22;10943;48.738;9.320;2022-07-05T15:54:23;33.50;56.00
21565;DHT22;10943;48.738;9.320;2022-07-05T15:56:52;33.40;56.00
21565;DHT22;10943;48.738;9.320;2022-07-05T15:59:27;33.10;56.60
21565;DHT22;10943;48.738;9.320;2022-07-05T16:01:56;33.00;58.90
21565;DHT22;10943;48.738;9.320;2022-07-05T16:04:24;32.80;57.80
21565;DHT22;10943;48.738;9.320;2022-07-05T16:06:57;33.10;57.90
21565;DHT22;10943;48.738;9.320;2022-07-05T16:09:26;33.10;57.60
21565;DHT22;10943;48.738;9.320;2022-07-05T16:11:54;33.00;57.00
21565;DHT22;10943;48.738;9.320;2022-07-05T16:14:22;32.60;56.40
21565;DHT22;10943;48.738;9.320;2022-07-05T16:16:50;32.50;57.70
21565;DHT22;10943;48.738;9.320;2022-07-05T16:19:21;32.70;56.60
21565;DHT22;10943;48.738;9.320;2022-07-05T16:21:50;32.90;56.90
21565;DHT22;10943;48.738;9.320;2022-07-05T16:24:19;33.20;56.60
21565;DHT22;10943;48.738;9.320;2022-07-05T16:26:48;33.40;55.70
21565;DHT22;10943;48.738;9.320;2022-07-05T16:29:19;33.60;56.20
21565;DHT22;10943;48.738;9.320;2022-07-05T16:31:47;33.60;54.70